Hasty, Arkansas
Current Conditions -  °F | °C
As of 11:53 AM on Thursday 23 Oct 2014 (Local Time) from KHRO Reporting Station
Clear Clear  
Wind Chill: 59°   Ceiling: Unl
Heat Index: 59°   Visibility: 10mi
Dew Point: 49°   Wind: 6mph
Humidity: 69%   Direction: 120°ESE
Pressure: 30.2"   Gusts: NA
Location:  36.02°N, 93.05°W
Report Text: KHRO 231653Z AUTO 12005KT 10SM CLR 15/09 A3020 RMK AO2 SLP223 T01500094
Loading
Personal Weather Stations






























Interactive Weather Map
Tropical Storm Tracking
New forecast layout! Learn more

10-Day Weather Forecast

Advertisements
Track Severe Weather on mobile